22°C Temp
18°C Dewpoint
78% Humidity
Temperature
14 KM/H
9 MPH
8 KTS
130°
South East

Wind Speed
Clear
Conditions
Pressure 1020.92 (hPa) - 30.15 (in)
Visibility 6.2 (mi) - 10.0 (km)

Current Conditions
LIMJ
Location 7(km)
Metar :LIMJ 041120Z 13008KT CAVOK 22/18 Q1021
Tue 4th October 13:20 pm

Airport
  Metar Aviation API Data Provided by https://www.checkwx.com/ PHP scripts by weather34.com ©2022